메인 페이지
METAR-TAF:

METAR-TAF

공항 :

그란카나리아 섬, 스페인

위도: 27-56N, 경도: 015-23W, 고도: 23m

현재 날씨관측

예보는 40분 전, 18:00시(UTC)에 발표되었습니다.
5kt동북동풍과 동남동풍을 오가는
온도 18°C
습도 68%
기압 1019 hPa
시정 10km 이상
고도 2800ft 상공 구름 조금
고도 4800ft 상공 구름 많음

METAR: GCLP 201800Z 08005KT 060V120 9999 FEW028 BKN048 18/12 Q1019 NOSIG

시각: 18:40 (18:40 UTC)

예보

예보는 4 시간 40분 전, 14:00시(UTC)에 발표되었습니다.
예보 대상 시간: 20일 15시부터 21일 15시까지 (UTC)
동북동8kt
시정 10km 이상
고도 3000ft 상공 구름 보통
일시적
20일 21시부터 21일 04시까지 (UTC)
북서10kt

TAF: GCLP 201400Z 2015/2115 06008KT 9999 SCT030 TX23/2114Z TN15/2106Z TEMPO 2021/2104 32010KT

4,000개 이상의 공항 관측 자료 및 예보 (METAR 및 TAF 보고).

지도상에서 검색 가능한 기상관측소가 노란 점과 빨간 점으로 표시되어 있습니다.

기상관측소 명을 보려면 표시 위로 마우스를 이동하세요.

날씨 관측과 예보를 보려면 클릭하세요.

지도 변경 : 확대하려면 엑스 표시가 있는 녹색 버튼, 축소하려면 빼기 표시가 있는 녹색 버튼, 다음 페이지의 지도를 보려면 녹색 화살표를 클릭하세요.


METAR-TAF: